EmailTwitter


Observations de surface / Québec / CYUL (71627)

Régions: Québec | Canada | États-Unis | Europe | France | UK | Ailleurs
Station
Affichage
Infos & localisation pour CYUL (71627) | Aide pour décoder les METARs

Observations prises le 2018-04-23 à 01H00 UTC à MONTREAL INTL A, QB (CYUL)

Etat du ciel: dégagé.

Température: 9.0 Celsius

Point de rosée: -9.0 Celsius

Humidité relative: 27%

Vents: Ouest à 9 km/h ou 5 noeuds.

Pression au niveau moyen de la mer: 102.87 kilopascals.

Calage altimétrique: 102.84 kilopascals ou 30.37 pouces de mercure.

Visibilité horizontale: 15.00 milles terrestres ou 24.00 kilomètres.

Observation METAR:

CYUL 230100Z 27005KT 15SM SKC 09/M09 A3037 RMK SLP287=